sensor_id;sensor_type;location;lat;lon;timestamp;temperature;humidity
65207;SHT31;58477;48.072;11.970;2022-08-14T00:01:05;15.50;70.73
65207;SHT31;58477;48.072;11.970;2022-08-14T00:03:31;15.53;70.86
65207;SHT31;58477;48.072;11.970;2022-08-14T00:05:58;15.55;70.79
65207;SHT31;58477;48.072;11.970;2022-08-14T00:08:24;15.59;70.76
65207;SHT31;58477;48.072;11.970;2022-08-14T00:10:51;15.58;70.86
65207;SHT31;58477;48.072;11.970;2022-08-14T00:13:19;15.55;71.07
65207;SHT31;58477;48.072;11.970;2022-08-14T00:15:46;15.50;70.92
65207;SHT31;58477;48.072;11.970;2022-08-14T00:18:18;15.51;70.64
65207;SHT31;58477;48.072;11.970;2022-08-14T00:20:44;15.44;71.15
65207;SHT31;58477;48.072;11.970;2022-08-14T00:23:12;15.38;71.14
65207;SHT31;58477;48.072;11.970;2022-08-14T00:25:38;15.37;71.05
65207;SHT31;58477;48.072;11.970;2022-08-14T00:28:06;15.26;71.13
65207;SHT31;58477;48.072;11.970;2022-08-14T00:30:32;14.90;71.75
65207;SHT31;58477;48.072;11.970;2022-08-14T00:32:57;14.79;72.26
65207;SHT31;58477;48.072;11.970;2022-08-14T00:35:23;14.69;72.51
65207;SHT31;58477;48.072;11.970;2022-08-14T00:37:49;14.87;72.36
65207;SHT31;58477;48.072;11.970;2022-08-14T00:40:16;15.01;72.12
65207;SHT31;58477;48.072;11.970;2022-08-14T00:42:42;15.07;71.63
65207;SHT31;58477;48.072;11.970;2022-08-14T00:45:10;15.04;71.69
65207;SHT31;58477;48.072;11.970;2022-08-14T00:47:36;15.06;71.74
65207;SHT31;58477;48.072;11.970;2022-08-14T00:50:04;15.06;71.39
65207;SHT31;58477;48.072;11.970;2022-08-14T00:52:31;15.08;71.46
65207;SHT31;58477;48.072;11.970;2022-08-14T00:54:58;15.10;71.15
65207;SHT31;58477;48.072;11.970;2022-08-14T00:57:29;15.10;70.99
65207;SHT31;58477;48.072;11.970;2022-08-14T00:59:55;15.26;70.89
65207;SHT31;58477;48.072;11.970;2022-08-14T01:02:22;15.31;70.67
65207;SHT31;58477;48.072;11.970;2022-08-14T01:04:52;15.37;70.97
65207;SHT31;58477;48.072;11.970;2022-08-14T01:07:19;15.34;70.93
65207;SHT31;58477;48.072;11.970;2022-08-14T01:09:56;15.31;70.79
65207;SHT31;58477;48.072;11.970;2022-08-14T01:12:24;15.30;71.11
65207;SHT31;58477;48.072;11.970;2022-08-14T01:14:50;15.30;70.50
65207;SHT31;58477;48.072;11.970;2022-08-14T01:17:23;15.34;70.91
65207;SHT31;58477;48.072;11.970;2022-08-14T01:20:10;15.35;70.38
65207;SHT31;58477;48.072;11.970;2022-08-14T01:22:54;15.34;70.29
65207;SHT31;58477;48.072;11.970;2022-08-14T01:25:19;15.16;70.72
65207;SHT31;58477;48.072;11.970;2022-08-14T01:27:45;14.81;71.10
65207;SHT31;58477;48.072;11.970;2022-08-14T01:30:11;14.65;72.02
65207;SHT31;58477;48.072;11.970;2022-08-14T01:32:37;14.79;72.01
65207;SHT31;58477;48.072;11.970;2022-08-14T01:35:03;14.91;71.64
65207;SHT31;58477;48.072;11.970;2022-08-14T01:37:32;14.93;71.73
65207;SHT31;58477;48.072;11.970;2022-08-14T01:39:58;14.69;72.42
65207;SHT31;58477;48.072;11.970;2022-08-14T01:42:23;14.53;73.33
65207;SHT31;58477;48.072;11.970;2022-08-14T01:44:49;14.35;73.91
65207;SHT31;58477;48.072;11.970;2022-08-14T01:47:17;14.08;74.10
65207;SHT31;58477;48.072;11.970;2022-08-14T01:49:43;14.25;74.17
65207;SHT31;58477;48.072;11.970;2022-08-14T01:52:09;14.56;72.74
65207;SHT31;58477;48.072;11.970;2022-08-14T01:54:35;14.35;73.17
65207;SHT31;58477;48.072;11.970;2022-08-14T01:57:00;14.40;73.37
65207;SHT31;58477;48.072;11.970;2022-08-14T01:59:31;14.46;73.20
65207;SHT31;58477;48.072;11.970;2022-08-14T02:01:59;14.43;73.35
65207;SHT31;58477;48.072;11.970;2022-08-14T02:04:33;14.36;73.46
65207;SHT31;58477;48.072;11.970;2022-08-14T02:07:00;14.43;73.35
65207;SHT31;58477;48.072;11.970;2022-08-14T02:09:27;14.43;73.16
65207;SHT31;58477;48.072;11.970;2022-08-14T02:11:55;14.39;73.32
65207;SHT31;58477;48.072;11.970;2022-08-14T02:14:21;14.36;73.12
65207;SHT31;58477;48.072;11.970;2022-08-14T02:16:48;14.46;73.21
65207;SHT31;58477;48.072;11.970;2022-08-14T02:19:23;14.43;73.30
65207;SHT31;58477;48.072;11.970;2022-08-14T02:21:53;14.35;73.28
65207;SHT31;58477;48.072;11.970;2022-08-14T02:24:21;14.42;73.02
65207;SHT31;58477;48.072;11.970;2022-08-14T02:26:48;14.59;72.00
65207;SHT31;58477;48.072;11.970;2022-08-14T02:29:17;14.77;71.63
65207;SHT31;58477;48.072;11.970;2022-08-14T02:31:45;14.77;71.72
65207;SHT31;58477;48.072;11.970;2022-08-14T02:34:25;14.59;72.10
65207;SHT31;58477;48.072;11.970;2022-08-14T02:36:55;14.38;72.70
65207;SHT31;58477;48.072;11.970;2022-08-14T02:39:23;14.40;72.85
65207;SHT31;58477;48.072;11.970;2022-08-14T02:41:48;14.29;73.21
65207;SHT31;58477;48.072;11.970;2022-08-14T02:44:16;14.33;73.06
65207;SHT31;58477;48.072;11.970;2022-08-14T02:46:45;14.21;73.25
65207;SHT31;58477;48.072;11.970;2022-08-14T02:49:10;14.18;72.89
65207;SHT31;58477;48.072;11.970;2022-08-14T02:51:37;14.30;72.70
65207;SHT31;58477;48.072;11.970;2022-08-14T02:54:05;14.45;72.25
65207;SHT31;58477;48.072;11.970;2022-08-14T02:56:31;14.45;72.05
65207;SHT31;58477;48.072;11.970;2022-08-14T02:58:58;14.42;72.12
65207;SHT31;58477;48.072;11.970;2022-08-14T03:01:27;14.50;71.94
65207;SHT31;58477;48.072;11.970;2022-08-14T03:03:53;14.46;72.00
65207;SHT31;58477;48.072;11.970;2022-08-14T03:06:20;14.38;72.52
65207;SHT31;58477;48.072;11.970;2022-08-14T03:08:48;14.39;72.38
65207;SHT31;58477;48.072;11.970;2022-08-14T03:11:13;14.43;72.25
65207;SHT31;58477;48.072;11.970;2022-08-14T03:13:42;14.40;72.74
65207;SHT31;58477;48.072;11.970;2022-08-14T03:16:11;14.29;72.91
65207;SHT31;58477;48.072;11.970;2022-08-14T03:18:41;14.26;73.18
65207;SHT31;58477;48.072;11.970;2022-08-14T03:21:09;14.18;73.53
65207;SHT31;58477;48.072;11.970;2022-08-14T03:23:41;14.12;73.36
65207;SHT31;58477;48.072;11.970;2022-08-14T03:26:12;14.14;73.66
65207;SHT31;58477;48.072;11.970;2022-08-14T03:28:41;13.79;74.38
65207;SHT31;58477;48.072;11.970;2022-08-14T03:31:07;13.64;74.96
65207;SHT31;58477;48.072;11.970;2022-08-14T03:33:32;13.71;74.57
65207;SHT31;58477;48.072;11.970;2022-08-14T03:36:06;14.19;73.51
65207;SHT31;58477;48.072;11.970;2022-08-14T03:38:40;14.49;72.71
65207;SHT31;58477;48.072;11.970;2022-08-14T03:41:13;14.63;72.38
65207;SHT31;58477;48.072;11.970;2022-08-14T03:43:41;14.65;72.35
65207;SHT31;58477;48.072;11.970;2022-08-14T03:46:07;14.55;72.62
65207;SHT31;58477;48.072;11.970;2022-08-14T03:48:34;14.46;72.86
65207;SHT31;58477;48.072;11.970;2022-08-14T03:51:00;14.43;72.94
65207;SHT31;58477;48.072;11.970;2022-08-14T03:53:25;14.40;72.87
65207;SHT31;58477;48.072;11.970;2022-08-14T03:55:50;14.29;73.22
65207;SHT31;58477;48.072;11.970;2022-08-14T03:58:21;14.14;73.95
65207;SHT31;58477;48.072;11.970;2022-08-14T04:00:46;13.85;74.68
65207;SHT31;58477;48.072;11.970;2022-08-14T04:03:12;13.82;74.98
65207;SHT31;58477;48.072;11.970;2022-08-14T04:05:38;13.95;74.40
65207;SHT31;58477;48.072;11.970;2022-08-14T04:08:08;14.16;73.75
65207;SHT31;58477;48.072;11.970;2022-08-14T04:10:33;14.06;74.26
65207;SHT31;58477;48.072;11.970;2022-08-14T04:13:03;13.86;74.81
65207;SHT31;58477;48.072;11.970;2022-08-14T04:15:31;13.94;74.74
65207;SHT31;58477;48.072;11.970;2022-08-14T04:18:02;14.04;74.62
65207;SHT31;58477;48.072;11.970;2022-08-14T04:20:28;14.08;74.26
65207;SHT31;58477;48.072;11.970;2022-08-14T04:22:53;14.02;74.67
65207;SHT31;58477;48.072;11.970;2022-08-14T04:25:19;14.11;74.38
65207;SHT31;58477;48.072;11.970;2022-08-14T04:27:45;14.11;74.61
65207;SHT31;58477;48.072;11.970;2022-08-14T04:30:10;14.12;74.69
65207;SHT31;58477;48.072;11.970;2022-08-14T04:32:36;14.14;74.55
65207;SHT31;58477;48.072;11.970;2022-08-14T04:35:02;14.12;74.72
65207;SHT31;58477;48.072;11.970;2022-08-14T04:37:28;14.11;74.65
65207;SHT31;58477;48.072;11.970;2022-08-14T04:40:13;14.09;74.97
65207;SHT31;58477;48.072;11.970;2022-08-14T04:42:57;14.09;74.77
65207;SHT31;58477;48.072;11.970;2022-08-14T04:45:41;14.14;74.86
65207;SHT31;58477;48.072;11.970;2022-08-14T04:48:11;14.16;74.60
65207;SHT31;58477;48.072;11.970;2022-08-14T04:50:39;14.19;74.14
65207;SHT31;58477;48.072;11.970;2022-08-14T04:53:05;14.26;74.43
65207;SHT31;58477;48.072;11.970;2022-08-14T04:55:31;14.28;74.59
65207;SHT31;58477;48.072;11.970;2022-08-14T04:57:57;14.30;74.38
65207;SHT31;58477;48.072;11.970;2022-08-14T05:00:23;14.39;74.10
65207;SHT31;58477;48.072;11.970;2022-08-14T05:02:49;14.45;73.88
65207;SHT31;58477;48.072;11.970;2022-08-14T05:05:15;14.48;73.71
65207;SHT31;58477;48.072;11.970;2022-08-14T05:07:41;14.59;73.46
65207;SHT31;58477;48.072;11.970;2022-08-14T05:10:07;14.63;73.63
65207;SHT31;58477;48.072;11.970;2022-08-14T05:12:33;14.59;73.77
65207;SHT31;58477;48.072;11.970;2022-08-14T05:14:59;15.23;73.04
65207;SHT31;58477;48.072;11.970;2022-08-14T05:17:24;16.60;69.60
65207;SHT31;58477;48.072;11.970;2022-08-14T05:19:51;17.71;66.09
65207;SHT31;58477;48.072;11.970;2022-08-14T05:22:17;18.52;63.96
65207;SHT31;58477;48.072;11.970;2022-08-14T05:24:44;19.06;62.24
65207;SHT31;58477;48.072;11.970;2022-08-14T05:27:10;19.34;62.24
65207;SHT31;58477;48.072;11.970;2022-08-14T05:29:35;19.31;60.94
65207;SHT31;58477;48.072;11.970;2022-08-14T05:32:01;20.16;59.59
65207;SHT31;58477;48.072;11.970;2022-08-14T05:34:32;20.26;60.10
65207;SHT31;58477;48.072;11.970;2022-08-14T05:37:01;20.63;59.57
65207;SHT31;58477;48.072;11.970;2022-08-14T05:39:27;20.77;58.78
65207;SHT31;58477;48.072;11.970;2022-08-14T05:41:52;21.21;57.27
65207;SHT31;58477;48.072;11.970;2022-08-14T05:44:19;21.34;56.99
65207;SHT31;58477;48.072;11.970;2022-08-14T05:46:44;21.90;55.32
65207;SHT31;58477;48.072;11.970;2022-08-14T05:49:09;22.29;54.21
65207;SHT31;58477;48.072;11.970;2022-08-14T05:51:35;22.12;56.17
65207;SHT31;58477;48.072;11.970;2022-08-14T05:54:01;22.54;54.67
65207;SHT31;58477;48.072;11.970;2022-08-14T05:56:26;22.60;54.14
65207;SHT31;58477;48.072;11.970;2022-08-14T05:58:52;22.33;54.84
65207;SHT31;58477;48.072;11.970;2022-08-14T06:01:18;22.40;56.32
65207;SHT31;58477;48.072;11.970;2022-08-14T06:03:44;22.12;56.55
65207;SHT31;58477;48.072;11.970;2022-08-14T06:06:09;22.06;55.66
65207;SHT31;58477;48.072;11.970;2022-08-14T06:08:34;22.46;54.77
65207;SHT31;58477;48.072;11.970;2022-08-14T06:11:03;21.93;55.62
65207;SHT31;58477;48.072;11.970;2022-08-14T06:13:41;22.20;55.63
65207;SHT31;58477;48.072;11.970;2022-08-14T06:16:07;21.54;57.61
65207;SHT31;58477;48.072;11.970;2022-08-14T06:18:33;22.61;54.50
65207;SHT31;58477;48.072;11.970;2022-08-14T06:21:00;23.05;54.61
65207;SHT31;58477;48.072;11.970;2022-08-14T06:23:26;23.37;54.06
65207;SHT31;58477;48.072;11.970;2022-08-14T06:25:51;23.48;53.14
65207;SHT31;58477;48.072;11.970;2022-08-14T06:28:18;24.09;51.27
65207;SHT31;58477;48.072;11.970;2022-08-14T06:30:44;23.46;52.22
65207;SHT31;58477;48.072;11.970;2022-08-14T06:33:10;24.19;52.01
65207;SHT31;58477;48.072;11.970;2022-08-14T06:35:36;24.27;52.13
65207;SHT31;58477;48.072;11.970;2022-08-14T06:38:02;23.75;51.78
65207;SHT31;58477;48.072;11.970;2022-08-14T06:40:32;24.13;51.42
65207;SHT31;58477;48.072;11.970;2022-08-14T06:43:04;24.24;51.09
65207;SHT31;58477;48.072;11.970;2022-08-14T06:45:32;23.79;52.19
65207;SHT31;58477;48.072;11.970;2022-08-14T06:47:58;24.92;49.84
65207;SHT31;58477;48.072;11.970;2022-08-14T06:50:26;24.30;50.43
65207;SHT31;58477;48.072;11.970;2022-08-14T06:52:53;24.03;50.93
65207;SHT31;58477;48.072;11.970;2022-08-14T06:55:18;23.79;51.90
65207;SHT31;58477;48.072;11.970;2022-08-14T06:57:49;24.60;49.58
65207;SHT31;58477;48.072;11.970;2022-08-14T07:00:20;24.84;49.47
65207;SHT31;58477;48.072;11.970;2022-08-14T07:02:47;24.24;50.42
65207;SHT31;58477;48.072;11.970;2022-08-14T07:05:31;25.08;49.73
65207;SHT31;58477;48.072;11.970;2022-08-14T07:10:38;24.99;47.91
65207;SHT31;58477;48.072;11.970;2022-08-14T07:13:04;25.14;48.59
65207;SHT31;58477;48.072;11.970;2022-08-14T07:15:33;24.34;50.06
65207;SHT31;58477;48.072;11.970;2022-08-14T07:17:59;25.31;48.79
65207;SHT31;58477;48.072;11.970;2022-08-14T07:20:24;25.55;48.19
65207;SHT31;58477;48.072;11.970;2022-08-14T07:22:52;26.43;45.87
65207;SHT31;58477;48.072;11.970;2022-08-14T07:25:20;26.22;46.89
65207;SHT31;58477;48.072;11.970;2022-08-14T07:27:46;26.44;47.00
65207;SHT31;58477;48.072;11.970;2022-08-14T07:30:11;27.09;46.11
65207;SHT31;58477;48.072;11.970;2022-08-14T07:32:37;26.80;45.28
65207;SHT31;58477;48.072;11.970;2022-08-14T07:35:02;27.38;45.07
65207;SHT31;58477;48.072;11.970;2022-08-14T07:37:28;27.76;44.76
65207;SHT31;58477;48.072;11.970;2022-08-14T07:39:53;28.12;44.40
65207;SHT31;58477;48.072;11.970;2022-08-14T07:42:19;28.77;43.79
65207;SHT31;58477;48.072;11.970;2022-08-14T07:44:44;28.40;43.38
65207;SHT31;58477;48.072;11.970;2022-08-14T07:47:09;28.17;45.98
65207;SHT31;58477;48.072;11.970;2022-08-14T07:49:35;28.64;43.25
65207;SHT31;58477;48.072;11.970;2022-08-14T07:52:01;29.62;41.62
65207;SHT31;58477;48.072;11.970;2022-08-14T07:54:26;29.79;40.76
65207;SHT31;58477;48.072;11.970;2022-08-14T07:56:52;29.51;41.65
65207;SHT31;58477;48.072;11.970;2022-08-14T07:59:17;29.36;42.40
65207;SHT31;58477;48.072;11.970;2022-08-14T08:01:46;29.29;42.24
65207;SHT31;58477;48.072;11.970;2022-08-14T08:04:12;29.63;42.00
65207;SHT31;58477;48.072;11.970;2022-08-14T08:06:39;28.88;43.06
65207;SHT31;58477;48.072;11.970;2022-08-14T08:09:08;29.58;42.90
65207;SHT31;58477;48.072;11.970;2022-08-14T08:11:39;29.82;41.02
65207;SHT31;58477;48.072;11.970;2022-08-14T08:14:05;29.99;41.60
65207;SHT31;58477;48.072;11.970;2022-08-14T08:16:33;30.47;40.59
65207;SHT31;58477;48.072;11.970;2022-08-14T08:18:59;30.41;39.83
65207;SHT31;58477;48.072;11.970;2022-08-14T08:21:24;30.10;40.18
65207;SHT31;58477;48.072;11.970;2022-08-14T08:23:51;29.56;40.20
65207;SHT31;58477;48.072;11.970;2022-08-14T08:26:18;29.53;38.52
65207;SHT31;58477;48.072;11.970;2022-08-14T08:28:54;29.72;38.55
65207;SHT31;58477;48.072;11.970;2022-08-14T08:31:20;30.29;37.58
65207;SHT31;58477;48.072;11.970;2022-08-14T08:33:50;29.59;37.19
65207;SHT31;58477;48.072;11.970;2022-08-14T08:36:16;29.86;37.50
65207;SHT31;58477;48.072;11.970;2022-08-14T08:38:42;30.02;36.77
65207;SHT31;58477;48.072;11.970;2022-08-14T08:41:10;29.79;37.91
65207;SHT31;58477;48.072;11.970;2022-08-14T08:43:35;29.83;39.42
65207;SHT31;58477;48.072;11.970;2022-08-14T08:46:10;30.43;37.55
65207;SHT31;58477;48.072;11.970;2022-08-14T08:51:19;30.75;37.43
65207;SHT31;58477;48.072;11.970;2022-08-14T08:54:02;31.29;36.57
65207;SHT31;58477;48.072;11.970;2022-08-14T08:59:22;31.16;35.62
65207;SHT31;58477;48.072;11.970;2022-08-14T09:01:49;30.23;37.21
65207;SHT31;58477;48.072;11.970;2022-08-14T09:04:15;30.74;36.52
65207;SHT31;58477;48.072;11.970;2022-08-14T09:06:45;30.51;36.66
65207;SHT31;58477;48.072;11.970;2022-08-14T09:09:26;30.90;35.56
65207;SHT31;58477;48.072;11.970;2022-08-14T09:11:53;31.77;35.44
65207;SHT31;58477;48.072;11.970;2022-08-14T09:14:24;31.61;35.26
65207;SHT31;58477;48.072;11.970;2022-08-14T09:16:51;30.77;36.11
65207;SHT31;58477;48.072;11.970;2022-08-14T09:19:17;30.34;37.20
65207;SHT31;58477;48.072;11.970;2022-08-14T09:21:43;30.81;36.33
65207;SHT31;58477;48.072;11.970;2022-08-14T09:24:10;30.68;35.79
65207;SHT31;58477;48.072;11.970;2022-08-14T09:26:36;30.44;37.29
65207;SHT31;58477;48.072;11.970;2022-08-14T09:29:03;31.55;35.69
65207;SHT31;58477;48.072;11.970;2022-08-14T09:31:29;31.26;36.05
65207;SHT31;58477;48.072;11.970;2022-08-14T09:34:19;32.13;35.79
65207;SHT31;58477;48.072;11.970;2022-08-14T09:37:36;31.29;35.83
65207;SHT31;58477;48.072;11.970;2022-08-14T09:43:03;31.07;36.94
65207;SHT31;58477;48.072;11.970;2022-08-14T09:45:41;30.85;35.67
65207;SHT31;58477;48.072;11.970;2022-08-14T09:48:16;30.48;35.85
65207;SHT31;58477;48.072;11.970;2022-08-14T09:51:00;31.08;35.33
65207;SHT31;58477;48.072;11.970;2022-08-14T09:53:33;30.13;37.31
65207;SHT31;58477;48.072;11.970;2022-08-14T09:55:59;30.58;35.94
65207;SHT31;58477;48.072;11.970;2022-08-14T10:01:21;31.36;34.70
65207;SHT31;58477;48.072;11.970;2022-08-14T10:03:54;31.43;35.32
65207;SHT31;58477;48.072;11.970;2022-08-14T10:06:23;31.94;35.46
65207;SHT31;58477;48.072;11.970;2022-08-14T10:11:30;31.82;34.39
65207;SHT31;58477;48.072;11.970;2022-08-14T10:14:13;31.66;34.09
65207;SHT31;58477;48.072;11.970;2022-08-14T10:16:44;32.39;33.04
65207;SHT31;58477;48.072;11.970;2022-08-14T10:19:12;32.33;32.34
65207;SHT31;58477;48.072;11.970;2022-08-14T10:21:39;32.84;32.59
65207;SHT31;58477;48.072;11.970;2022-08-14T10:24:08;32.12;33.78
65207;SHT31;58477;48.072;11.970;2022-08-14T10:26:34;32.40;32.98
65207;SHT31;58477;48.072;11.970;2022-08-14T10:29:07;31.77;33.05
65207;SHT31;58477;48.072;11.970;2022-08-14T10:31:36;31.89;32.32
65207;SHT31;58477;48.072;11.970;2022-08-14T10:34:07;32.49;32.17
65207;SHT31;58477;48.072;11.970;2022-08-14T10:36:38;32.31;32.35
65207;SHT31;58477;48.072;11.970;2022-08-14T10:39:16;32.65;32.17
65207;SHT31;58477;48.072;11.970;2022-08-14T10:41:43;32.12;32.25
65207;SHT31;58477;48.072;11.970;2022-08-14T10:44:22;32.41;32.79
65207;SHT31;58477;48.072;11.970;2022-08-14T10:49:19;32.68;31.90
65207;SHT31;58477;48.072;11.970;2022-08-14T10:52:01;32.90;32.44
65207;SHT31;58477;48.072;11.970;2022-08-14T10:54:39;32.49;31.37
65207;SHT31;58477;48.072;11.970;2022-08-14T10:57:22;32.95;30.37
65207;SHT31;58477;48.072;11.970;2022-08-14T11:02:31;32.56;31.16
65207;SHT31;58477;48.072;11.970;2022-08-14T11:05:13;31.99;30.57
65207;SHT31;58477;48.072;11.970;2022-08-14T11:07:54;33.07;29.54
65207;SHT31;58477;48.072;11.970;2022-08-14T11:10:25;33.52;28.20
65207;SHT31;58477;48.072;11.970;2022-08-14T11:12:55;32.09;30.30
65207;SHT31;58477;48.072;11.970;2022-08-14T11:15:24;33.08;29.05
65207;SHT31;58477;48.072;11.970;2022-08-14T11:17:51;34.47;28.53
65207;SHT31;58477;48.072;11.970;2022-08-14T11:20:18;33.68;29.62
65207;SHT31;58477;48.072;11.970;2022-08-14T11:22:45;33.93;29.18
65207;SHT31;58477;48.072;11.970;2022-08-14T11:25:14;33.79;27.75
65207;SHT31;58477;48.072;11.970;2022-08-14T11:27:42;33.82;27.61
65207;SHT31;58477;48.072;11.970;2022-08-14T11:30:11;33.29;30.19
65207;SHT31;58477;48.072;11.970;2022-08-14T11:32:48;33.36;29.63
65207;SHT31;58477;48.072;11.970;2022-08-14T11:35:16;33.08;29.51
65207;SHT31;58477;48.072;11.970;2022-08-14T11:37:56;32.61;30.81
65207;SHT31;58477;48.072;11.970;2022-08-14T11:40:25;32.45;31.08
65207;SHT31;58477;48.072;11.970;2022-08-14T11:42:53;33.04;30.56
65207;SHT31;58477;48.072;11.970;2022-08-14T11:45:25;32.90;30.36
65207;SHT31;58477;48.072;11.970;2022-08-14T11:47:52;33.24;30.55
65207;SHT31;58477;48.072;11.970;2022-08-14T11:50:24;33.38;30.32
65207;SHT31;58477;48.072;11.970;2022-08-14T11:52:51;32.88;30.45
65207;SHT31;58477;48.072;11.970;2022-08-14T11:55:18;32.47;28.57
65207;SHT31;58477;48.072;11.970;2022-08-14T11:57:44;32.57;28.89
65207;SHT31;58477;48.072;11.970;2022-08-14T12:00:16;33.01;29.58
65207;SHT31;58477;48.072;11.970;2022-08-14T12:02:56;32.92;30.86
65207;SHT31;58477;48.072;11.970;2022-08-14T12:05:36;32.45;29.41
65207;SHT31;58477;48.072;11.970;2022-08-14T12:08:05;33.04;29.24
65207;SHT31;58477;48.072;11.970;2022-08-14T12:10:39;32.31;29.36
65207;SHT31;58477;48.072;11.970;2022-08-14T12:13:13;31.59;30.26
65207;SHT31;58477;48.072;11.970;2022-08-14T12:15:40;32.31;29.45
65207;SHT31;58477;48.072;11.970;2022-08-14T12:18:06;32.50;29.97
65207;SHT31;58477;48.072;11.970;2022-08-14T12:20:40;32.21;29.38
65207;SHT31;58477;48.072;11.970;2022-08-14T12:23:24;32.16;29.20
65207;SHT31;58477;48.072;11.970;2022-08-14T12:25:49;32.45;29.19
65207;SHT31;58477;48.072;11.970;2022-08-14T12:28:25;32.34;28.90
65207;SHT31;58477;48.072;11.970;2022-08-14T12:30:52;32.81;30.32
65207;SHT31;58477;48.072;11.970;2022-08-14T12:33:22;31.83;31.30
65207;SHT31;58477;48.072;11.970;2022-08-14T12:35:53;31.86;30.26
65207;SHT31;58477;48.072;11.970;2022-08-14T12:38:37;32.51;29.86
65207;SHT31;58477;48.072;11.970;2022-08-14T12:41:09;31.97;29.55
65207;SHT31;58477;48.072;11.970;2022-08-14T12:43:53;32.03;28.72
65207;SHT31;58477;48.072;11.970;2022-08-14T12:48:58;32.65;30.40
65207;SHT31;58477;48.072;11.970;2022-08-14T12:51:26;32.68;29.28
65207;SHT31;58477;48.072;11.970;2022-08-14T12:53:53;32.39;28.78
65207;SHT31;58477;48.072;11.970;2022-08-14T12:56:20;32.75;29.73
65207;SHT31;58477;48.072;11.970;2022-08-14T12:58:51;32.03;30.28
65207;SHT31;58477;48.072;11.970;2022-08-14T13:01:25;31.89;30.42
65207;SHT31;58477;48.072;11.970;2022-08-14T13:04:03;32.19;30.07
65207;SHT31;58477;48.072;11.970;2022-08-14T13:06:29;32.03;31.72
65207;SHT31;58477;48.072;11.970;2022-08-14T13:08:55;32.67;30.97
65207;SHT31;58477;48.072;11.970;2022-08-14T13:11:22;31.96;31.32
65207;SHT31;58477;48.072;11.970;2022-08-14T13:13:52;31.42;31.25
65207;SHT31;58477;48.072;11.970;2022-08-14T13:16:20;30.80;30.56
65207;SHT31;58477;48.072;11.970;2022-08-14T13:18:46;31.41;30.81
65207;SHT31;58477;48.072;11.970;2022-08-14T13:21:12;31.41;30.06
65207;SHT31;58477;48.072;11.970;2022-08-14T13:23:40;31.70;30.75
65207;SHT31;58477;48.072;11.970;2022-08-14T13:26:09;31.34;30.18
65207;SHT31;58477;48.072;11.970;2022-08-14T13:28:37;31.31;29.92
65207;SHT31;58477;48.072;11.970;2022-08-14T13:31:06;31.77;29.00
65207;SHT31;58477;48.072;11.970;2022-08-14T13:33:32;31.86;29.02
65207;SHT31;58477;48.072;11.970;2022-08-14T13:36:03;31.39;29.75
65207;SHT31;58477;48.072;11.970;2022-08-14T13:38:28;31.38;30.01
65207;SHT31;58477;48.072;11.970;2022-08-14T13:40:56;32.05;28.94
65207;SHT31;58477;48.072;11.970;2022-08-14T13:43:22;31.99;30.96
65207;SHT31;58477;48.072;11.970;2022-08-14T13:45:51;30.48;31.19
65207;SHT31;58477;48.072;11.970;2022-08-14T13:48:21;31.56;30.07
65207;SHT31;58477;48.072;11.970;2022-08-14T13:50:54;31.62;28.68
65207;SHT31;58477;48.072;11.970;2022-08-14T13:53:22;31.24;29.34
65207;SHT31;58477;48.072;11.970;2022-08-14T13:55:51;31.94;29.19
65207;SHT31;58477;48.072;11.970;2022-08-14T13:58:19;31.46;29.69
65207;SHT31;58477;48.072;11.970;2022-08-14T14:00:46;31.29;29.67
65207;SHT31;58477;48.072;11.970;2022-08-14T14:03:12;31.67;28.67
65207;SHT31;58477;48.072;11.970;2022-08-14T14:05:44;31.38;29.56
65207;SHT31;58477;48.072;11.970;2022-08-14T14:08:14;31.43;29.76
65207;SHT31;58477;48.072;11.970;2022-08-14T14:10:42;31.24;30.31
65207;SHT31;58477;48.072;11.970;2022-08-14T14:13:08;31.15;29.46
65207;SHT31;58477;48.072;11.970;2022-08-14T14:15:35;31.18;29.38
65207;SHT31;58477;48.072;11.970;2022-08-14T14:18:01;30.40;29.85
65207;SHT31;58477;48.072;11.970;2022-08-14T14:20:27;31.01;29.21
65207;SHT31;58477;48.072;11.970;2022-08-14T14:22:52;30.58;30.15
65207;SHT31;58477;48.072;11.970;2022-08-14T14:25:19;30.87;29.48
65207;SHT31;58477;48.072;11.970;2022-08-14T14:27:46;30.53;30.25
65207;SHT31;58477;48.072;11.970;2022-08-14T14:30:14;30.64;30.28
65207;SHT31;58477;48.072;11.970;2022-08-14T14:32:42;31.01;29.29
65207;SHT31;58477;48.072;11.970;2022-08-14T14:35:14;31.26;29.59
65207;SHT31;58477;48.072;11.970;2022-08-14T14:37:42;31.22;29.55
65207;SHT31;58477;48.072;11.970;2022-08-14T14:40:09;30.51;30.47
65207;SHT31;58477;48.072;11.970;2022-08-14T14:42:45;30.54;30.99
65207;SHT31;58477;48.072;11.970;2022-08-14T14:45:16;30.23;32.28
65207;SHT31;58477;48.072;11.970;2022-08-14T14:47:45;30.60;31.49
65207;SHT31;58477;48.072;11.970;2022-08-14T14:50:12;30.99;30.39
65207;SHT31;58477;48.072;11.970;2022-08-14T14:52:38;30.81;31.23
65207;SHT31;58477;48.072;11.970;2022-08-14T14:55:17;30.45;31.34
65207;SHT31;58477;48.072;11.970;2022-08-14T14:57:58;30.26;31.17
65207;SHT31;58477;48.072;11.970;2022-08-14T15:00:24;30.36;31.32
65207;SHT31;58477;48.072;11.970;2022-08-14T15:02:52;30.27;31.48
65207;SHT31;58477;48.072;11.970;2022-08-14T15:05:19;30.74;31.05
65207;SHT31;58477;48.072;11.970;2022-08-14T15:07:47;30.61;31.70
65207;SHT31;58477;48.072;11.970;2022-08-14T15:10:14;30.68;31.05
65207;SHT31;58477;48.072;11.970;2022-08-14T15:12:40;30.31;30.85
65207;SHT31;58477;48.072;11.970;2022-08-14T15:15:08;30.19;30.24
65207;SHT31;58477;48.072;11.970;2022-08-14T15:17:33;30.43;30.17
65207;SHT31;58477;48.072;11.970;2022-08-14T15:20:04;30.37;29.94
65207;SHT31;58477;48.072;11.970;2022-08-14T15:22:31;30.29;30.83
65207;SHT31;58477;48.072;11.970;2022-08-14T15:24:56;30.07;29.75
65207;SHT31;58477;48.072;11.970;2022-08-14T15:27:22;30.48;29.71
65207;SHT31;58477;48.072;11.970;2022-08-14T15:29:47;30.40;30.74
65207;SHT31;58477;48.072;11.970;2022-08-14T15:32:13;29.97;31.24
65207;SHT31;58477;48.072;11.970;2022-08-14T15:34:39;30.14;31.11
65207;SHT31;58477;48.072;11.970;2022-08-14T15:37:06;30.23;30.96
65207;SHT31;58477;48.072;11.970;2022-08-14T15:39:32;29.80;31.34
65207;SHT31;58477;48.072;11.970;2022-08-14T15:41:58;29.53;30.67
65207;SHT31;58477;48.072;11.970;2022-08-14T15:44:27;29.79;31.45
65207;SHT31;58477;48.072;11.970;2022-08-14T15:46:54;30.27;30.70
65207;SHT31;58477;48.072;11.970;2022-08-14T15:49:20;30.06;33.26